Time;durP1;ratioP1;P1;durP2;ratioP2;P2;SDS_P1;SDS_P2;PMS_P1;PMS_P2;Temp;Humidity;BMP_temperature;BMP_pressure;BME280_temperature;BME280_humidity;BME280_pressure;Samples;Min_cycle;Max_cycle;Signal;HPM_P1;HPM_P2
2022/06/14 00:01:13;;;;;;;;;;;14.10;99.90;;;;;;5093613;28;20474;-78
2022/06/14 00:03:40;;;;;;;;;;;14.10;99.90;;;;;;5093872;28;19908;-77
2022/06/14 00:06:07;;;;;;;;;;;14.10;99.90;;;;;;5093495;28;19908;-77
2022/06/14 00:08:33;;;;;;;;;;;14.10;99.90;;;;;;5092877;28;20269;-77
2022/06/14 00:11:00;;;;;;;;;;;14.00;99.90;;;;;;5093440;28;19915;-78
2022/06/14 00:13:26;;;;;;;;;;;14.00;99.90;;;;;;5093925;28;20023;-77
2022/06/14 00:15:51;;;;;;;;;;;14.00;99.90;;;;;;5093598;28;20410;-77
2022/06/14 00:18:17;;;;;;;;;;;13.90;99.90;;;;;;5093045;28;20011;-78
2022/06/14 00:20:44;;;;;;;;;;;13.90;99.90;;;;;;5093776;28;20007;-78
2022/06/14 00:23:09;;;;;;;;;;;14.00;99.90;;;;;;5093230;28;19908;-78
2022/06/14 00:25:37;;;;;;;;;;;13.90;99.90;;;;;;5093814;28;19915;-78
2022/06/14 00:28:03;;;;;;;;;;;14.00;99.90;;;;;;5093165;28;19908;-77
2022/06/14 00:30:31;;;;;;;;;;;13.90;99.90;;;;;;5093318;28;20490;-78
2022/06/14 00:32:57;;;;;;;;;;;13.90;99.90;;;;;;5091928;28;19923;-77
2022/06/14 00:35:22;;;;;;;;;;;13.90;99.90;;;;;;5093303;28;19916;-77
2022/06/14 00:37:49;;;;;;;;;;;13.90;99.90;;;;;;5093234;28;19908;-78
2022/06/14 00:40:15;;;;;;;;;;;13.90;99.90;;;;;;5092969;28;19948;-78
2022/06/14 00:42:41;;;;;;;;;;;13.90;99.90;;;;;;5093588;28;19977;-78
2022/06/14 00:45:07;;;;;;;;;;;13.90;99.90;;;;;;5093049;28;20353;-78
2022/06/14 00:47:35;;;;;;;;;;;13.90;99.90;;;;;;5110874;28;19912;-78
2022/06/14 00:50:03;;;;;;;;;;;13.90;99.90;;;;;;5113301;28;19908;-76
2022/06/14 00:52:31;;;;;;;;;;;13.80;99.90;;;;;;5095162;28;19923;-78
2022/06/14 00:55:00;;;;;;;;;;;13.80;99.90;;;;;;5093298;28;19908;-77
2022/06/14 00:57:28;;;;;;;;;;;13.80;99.90;;;;;;5092851;28;19908;-77
2022/06/14 00:59:57;;;;;;;;;;;13.90;99.90;;;;;;5093151;28;20357;-77
2022/06/14 01:02:25;;;;;;;;;;;13.90;99.90;;;;;;5092597;28;20424;-78
2022/06/14 01:04:50;;;;;;;;;;;13.90;99.90;;;;;;5092981;28;19908;-78
2022/06/14 01:07:16;;;;;;;;;;;13.90;99.90;;;;;;5092218;28;19965;-78
2022/06/14 01:09:44;;;;;;;;;;;13.80;99.90;;;;;;5093159;28;19912;-78
2022/06/14 01:12:11;;;;;;;;;;;13.80;99.90;;;;;;5092788;28;19924;-76
2022/06/14 01:14:55;;;;;;;;;;;13.70;99.90;;;;;;5093187;28;20293;-77
2022/06/14 01:17:21;;;;;;;;;;;13.80;99.90;;;;;;5093346;28;20002;-76
2022/06/14 01:19:46;;;;;;;;;;;13.80;99.90;;;;;;5093397;28;19951;-77
2022/06/14 01:22:12;;;;;;;;;;;13.80;99.90;;;;;;5092690;28;20006;-77
2022/06/14 01:24:39;;;;;;;;;;;13.80;99.90;;;;;;5093344;28;20273;-77
2022/06/14 01:27:07;;;;;;;;;;;13.80;99.90;;;;;;5092743;28;20003;-76
2022/06/14 01:29:33;;;;;;;;;;;13.80;99.90;;;;;;5093208;28;19947;-77
2022/06/14 01:32:01;;;;;;;;;;;13.80;99.90;;;;;;5092642;28;19920;-76
2022/06/14 01:34:30;;;;;;;;;;;13.70;99.90;;;;;;5092821;28;20281;-77
2022/06/14 01:36:57;;;;;;;;;;;13.80;99.90;;;;;;5093032;28;20003;-77
2022/06/14 01:39:23;;;;;;;;;;;13.70;99.90;;;;;;5092543;28;19918;-76
2022/06/14 01:42:00;;;;;;;;;;;13.70;99.90;;;;;;5092764;28;20028;-77
2022/06/14 01:44:26;;;;;;;;;;;13.70;99.90;;;;;;5092957;28;19908;-77
2022/06/14 01:47:08;;;;;;;;;;;13.70;99.90;;;;;;5093100;28;20383;-77
2022/06/14 01:52:28;;;;;;;;;;;13.70;99.90;;;;;;5092039;28;19927;-77
2022/06/14 01:55:12;;;;;;;;;;;13.70;99.90;;;;;;5092926;28;19908;-77
2022/06/14 01:58:04;;;;;;;;;;;13.60;99.90;;;;;;5092929;28;19955;-77
2022/06/14 02:00:36;;;;;;;;;;;13.60;99.90;;;;;;5083853;28;19912;-78
2022/06/14 02:06:21;;;;;;;;;;;13.60;99.90;;;;;;5091874;28;19914;-77
2022/06/14 02:08:53;;;;;;;;;;;13.60;99.90;;;;;;5092859;28;19948;-77
2022/06/14 02:11:22;;;;;;;;;;;13.50;99.90;;;;;;5092302;28;20012;-76
2022/06/14 02:13:49;;;;;;;;;;;13.50;99.90;;;;;;5092817;28;19908;-76
2022/06/14 02:16:37;;;;;;;;;;;13.50;99.90;;;;;;5092085;28;20352;-76
2022/06/14 02:19:09;;;;;;;;;;;13.40;99.90;;;;;;5088460;28;19914;-75
2022/06/14 02:21:41;;;;;;;;;;;13.40;99.90;;;;;;5092740;28;19962;-77
2022/06/14 02:24:10;;;;;;;;;;;13.40;99.90;;;;;;5091863;28;19908;-76
2022/06/14 02:26:37;;;;;;;;;;;13.40;99.90;;;;;;5092646;28;19908;-76
2022/06/14 02:29:15;;;;;;;;;;;13.40;99.90;;;;;;5092181;28;20004;-76
2022/06/14 02:31:43;;;;;;;;;;;13.40;99.90;;;;;;5092041;28;19920;-77
2022/06/14 02:34:11;;;;;;;;;;;13.40;99.90;;;;;;5092116;28;20345;-77
2022/06/14 02:36:43;;;;;;;;;;;13.40;99.90;;;;;;5092530;28;19912;-77
2022/06/14 02:39:14;;;;;;;;;;;13.40;99.90;;;;;;5092366;28;19908;-77
2022/06/14 02:41:58;;;;;;;;;;;13.40;99.90;;;;;;5092441;28;19988;-77
2022/06/14 02:44:33;;;;;;;;;;;13.40;99.90;;;;;;5091666;28;20289;-76
2022/06/14 02:47:11;;;;;;;;;;;13.40;99.90;;;;;;5092553;28;19951;-77
2022/06/14 02:49:41;;;;;;;;;;;13.40;99.90;;;;;;5092332;28;19954;-76
2022/06/14 02:52:13;;;;;;;;;;;13.40;99.90;;;;;;5091576;28;19965;-76
2022/06/14 02:54:45;;;;;;;;;;;13.30;99.90;;;;;;5092327;28;19939;-77
2022/06/14 02:57:13;;;;;;;;;;;13.40;99.90;;;;;;5095204;28;19916;-76
2022/06/14 02:59:46;;;;;;;;;;;13.40;99.90;;;;;;5095551;28;19908;-77
2022/06/14 03:02:18;;;;;;;;;;;13.40;99.90;;;;;;5094968;28;20373;-77
2022/06/14 03:04:45;;;;;;;;;;;13.40;99.90;;;;;;5095587;28;20002;-77
2022/06/14 03:07:13;;;;;;;;;;;13.40;99.90;;;;;;5094795;28;20280;-77
2022/06/14 03:09:41;;;;;;;;;;;13.30;99.90;;;;;;5095902;28;19974;-77
2022/06/14 03:12:13;;;;;;;;;;;13.30;99.90;;;;;;5093850;28;19916;-76
2022/06/14 03:14:45;;;;;;;;;;;13.30;99.90;;;;;;5095682;28;19958;-77
2022/06/14 03:17:29;;;;;;;;;;;13.20;99.90;;;;;;5094903;28;19991;-76
2022/06/14 03:20:01;;;;;;;;;;;13.20;99.90;;;;;;5095658;28;19974;-76
2022/06/14 03:22:29;;;;;;;;;;;13.20;99.90;;;;;;5095008;28;20316;-76
2022/06/14 03:25:00;;;;;;;;;;;13.20;99.90;;;;;;5095864;28;20367;-76
2022/06/14 03:27:44;;;;;;;;;;;13.20;99.90;;;;;;5094856;28;19986;-76
2022/06/14 03:30:13;;;;;;;;;;;13.20;99.90;;;;;;5094227;28;19912;-76
2022/06/14 03:32:41;;;;;;;;;;;13.20;99.90;;;;;;5094044;28;19922;-76
2022/06/14 03:35:10;;;;;;;;;;;13.10;99.90;;;;;;5094610;28;20284;-75
2022/06/14 03:37:35;;;;;;;;;;;13.10;99.90;;;;;;5095039;28;19915;-77
2022/06/14 03:40:04;;;;;;;;;;;13.10;99.90;;;;;;5095156;28;20006;-77
2022/06/14 03:42:30;;;;;;;;;;;13.10;99.90;;;;;;5094421;28;19959;-76
2022/06/14 03:44:57;;;;;;;;;;;13.20;99.90;;;;;;5095101;28;19936;-77
2022/06/14 03:47:24;;;;;;;;;;;13.10;99.90;;;;;;5094485;28;19935;-76
2022/06/14 03:50:05;;;;;;;;;;;13.00;99.90;;;;;;5094643;28;19965;-76
2022/06/14 03:52:45;;;;;;;;;;;13.10;99.90;;;;;;5094345;28;19916;-76
2022/06/14 03:55:19;;;;;;;;;;;13.10;99.90;;;;;;5094230;28;19908;-75
2022/06/14 03:57:47;;;;;;;;;;;13.10;99.90;;;;;;5095083;28;19953;-76
2022/06/14 04:00:13;;;;;;;;;;;13.10;99.90;;;;;;5093779;28;19908;-77
2022/06/14 04:02:54;;;;;;;;;;;13.10;99.90;;;;;;5094432;28;19953;-76
2022/06/14 04:05:31;;;;;;;;;;;13.10;99.90;;;;;;5094270;28;19915;-77
2022/06/14 04:07:57;;;;;;;;;;;13.20;99.90;;;;;;5094713;28;20430;-77
2022/06/14 04:10:25;;;;;;;;;;;13.30;99.90;;;;;;5094013;28;19912;-76
2022/06/14 04:12:57;;;;;;;;;;;13.30;99.90;;;;;;5094505;28;19949;-76
2022/06/14 04:15:41;;;;;;;;;;;13.20;99.90;;;;;;5093956;28;19912;-76
2022/06/14 04:21:14;;;;;;;;;;;13.20;99.90;;;;;;5094602;28;19914;-76
2022/06/14 04:23:44;;;;;;;;;;;13.20;99.90;;;;;;5094540;28;19908;-76
2022/06/14 04:26:16;;;;;;;;;;;13.30;99.90;;;;;;5093974;28;19954;-75
2022/06/14 04:28:49;;;;;;;;;;;13.20;99.90;;;;;;5094344;28;19914;-76
2022/06/14 04:31:34;;;;;;;;;;;13.20;99.90;;;;;;5093313;28;19921;-76
2022/06/14 04:34:23;;;;;;;;;;;13.30;99.90;;;;;;5094108;28;19965;-76
2022/06/14 04:36:55;;;;;;;;;;;13.20;99.90;;;;;;5093894;28;20003;-77
2022/06/14 04:39:32;;;;;;;;;;;13.20;99.90;;;;;;5093393;28;19908;-76
2022/06/14 04:42:03;;;;;;;;;;;13.20;99.90;;;;;;5093906;28;19908;-76
2022/06/14 04:44:38;;;;;;;;;;;13.10;99.90;;;;;;5093227;28;20002;-76
2022/06/14 04:47:25;;;;;;;;;;;13.10;99.90;;;;;;5093588;28;20310;-76
2022/06/14 04:49:58;;;;;;;;;;;13.20;99.90;;;;;;5093858;28;19914;-76
2022/06/14 04:52:26;;;;;;;;;;;13.20;99.90;;;;;;5093028;28;19912;-76
2022/06/14 04:54:56;;;;;;;;;;;13.30;99.90;;;;;;5093776;28;20010;-76
2022/06/14 04:57:34;;;;;;;;;;;13.30;99.90;;;;;;5093141;28;19912;-76
2022/06/14 05:00:08;;;;;;;;;;;13.30;99.90;;;;;;5093696;28;19990;-77
2022/06/14 05:02:38;;;;;;;;;;;13.40;99.90;;;;;;5092860;28;20391;-77
2022/06/14 05:05:14;;;;;;;;;;;13.40;99.90;;;;;;5093765;28;19915;-76
2022/06/14 05:07:39;;;;;;;;;;;13.40;99.90;;;;;;5093493;28;19908;-76
2022/06/14 05:10:11;;;;;;;;;;;13.50;99.90;;;;;;5093210;28;20417;-77
2022/06/14 05:12:42;;;;;;;;;;;13.50;99.90;;;;;;5092752;28;20025;-76
2022/06/14 05:15:15;;;;;;;;;;;13.50;99.90;;;;;;5093536;28;19916;-77
2022/06/14 05:17:49;;;;;;;;;;;13.50;99.90;;;;;;5092139;28;20272;-77
2022/06/14 05:20:21;;;;;;;;;;;13.60;99.90;;;;;;5092506;28;19908;-75
2022/06/14 05:22:52;;;;;;;;;;;13.60;99.90;;;;;;5092120;28;20268;-76
2022/06/14 05:25:19;;;;;;;;;;;13.70;99.90;;;;;;5092673;28;19909;-76
2022/06/14 05:27:47;;;;;;;;;;;13.70;99.90;;;;;;5092003;28;19908;-76
2022/06/14 05:30:28;;;;;;;;;;;13.80;99.90;;;;;;5092725;28;19928;-74
2022/06/14 05:33:02;;;;;;;;;;;13.90;99.90;;;;;;5093204;28;19916;-77
2022/06/14 05:35:28;;;;;;;;;;;13.90;99.90;;;;;;5091307;28;20420;-76
2022/06/14 05:38:09;;;;;;;;;;;14.00;99.90;;;;;;5092891;28;19954;-76
2022/06/14 05:40:41;;;;;;;;;;;14.10;99.90;;;;;;5092423;28;19908;-77
2022/06/14 05:43:14;;;;;;;;;;;14.20;99.90;;;;;;5092978;28;19943;-77
2022/06/14 05:45:45;;;;;;;;;;;14.20;99.90;;;;;;5091611;28;19915;-77
2022/06/14 05:48:16;;;;;;;;;;;14.20;99.90;;;;;;5093038;28;20003;-77
2022/06/14 05:50:43;;;;;;;;;;;14.30;99.90;;;;;;5092888;28;19908;-77
2022/06/14 05:53:14;;;;;;;;;;;14.40;99.90;;;;;;5092928;28;19912;-77
2022/06/14 05:55:46;;;;;;;;;;;14.40;99.90;;;;;;5092832;28;19919;-77
2022/06/14 05:58:14;;;;;;;;;;;14.50;99.90;;;;;;5092693;28;20022;-78
2022/06/14 06:00:48;;;;;;;;;;;14.50;99.90;;;;;;5092049;28;20116;-77
2022/06/14 06:03:32;;;;;;;;;;;14.60;99.90;;;;;;5092688;28;20004;-77
2022/06/14 06:06:06;;;;;;;;;;;14.60;99.90;;;;;;5093000;28;19915;-77
2022/06/14 06:08:35;;;;;;;;;;;14.60;99.90;;;;;;5092336;28;20429;-77
2022/06/14 06:11:05;;;;;;;;;;;14.60;99.90;;;;;;5093201;28;19916;-77
2022/06/14 06:13:35;;;;;;;;;;;14.70;99.90;;;;;;5092572;28;19935;-77
2022/06/14 06:16:03;;;;;;;;;;;14.70;99.90;;;;;;5092373;28;20380;-77
2022/06/14 06:18:32;;;;;;;;;;;14.70;99.90;;;;;;5092238;28;20320;-77
2022/06/14 06:21:14;;;;;;;;;;;14.70;99.90;;;;;;5092472;28;20050;-77
2022/06/14 06:23:49;;;;;;;;;;;14.80;99.90;;;;;;5092173;28;19959;-77
2022/06/14 06:26:16;;;;;;;;;;;14.90;99.90;;;;;;5092405;28;20273;-77
2022/06/14 06:28:47;;;;;;;;;;;14.90;99.90;;;;;;5092149;28;20018;-77
2022/06/14 06:31:39;;;;;;;;;;;14.90;99.90;;;;;;5093228;28;19927;-77
2022/06/14 06:34:06;;;;;;;;;;;14.90;99.90;;;;;;5095169;28;19916;-77
2022/06/14 06:36:44;;;;;;;;;;;14.90;99.90;;;;;;5095768;28;19912;-77
2022/06/14 06:39:22;;;;;;;;;;;14.90;99.90;;;;;;5095856;28;20312;-77
2022/06/14 06:41:50;;;;;;;;;;;14.90;99.90;;;;;;5097278;28;19915;-77
2022/06/14 06:44:28;;;;;;;;;;;15.00;99.90;;;;;;5096868;28;19908;-77
2022/06/14 06:47:06;;;;;;;;;;;15.00;99.90;;;;;;5096257;28;19934;-77
2022/06/14 06:49:58;;;;;;;;;;;15.10;99.90;;;;;;5095528;28;19912;-76
2022/06/14 06:52:29;;;;;;;;;;;15.20;99.90;;;;;;5086476;28;19912;-76
2022/06/14 06:55:01;;;;;;;;;;;15.30;99.90;;;;;;5103787;28;20037;-77
2022/06/14 06:57:27;;;;;;;;;;;15.40;99.90;;;;;;5110339;28;19908;-76
2022/06/14 06:59:55;;;;;;;;;;;15.50;99.90;;;;;;5096463;28;19908;-77
2022/06/14 07:02:34;;;;;;;;;;;15.60;99.90;;;;;;5095297;28;19908;-75
2022/06/14 07:05:03;;;;;;;;;;;15.50;99.90;;;;;;5096038;28;19915;-76
2022/06/14 07:07:35;;;;;;;;;;;15.60;99.90;;;;;;5095420;28;19908;-76
2022/06/14 07:10:03;;;;;;;;;;;15.50;99.90;;;;;;5095852;28;19908;-76
2022/06/14 07:12:36;;;;;;;;;;;15.60;99.90;;;;;;5095005;28;19919;-76
2022/06/14 07:15:08;;;;;;;;;;;15.60;99.90;;;;;;5094538;28;20292;-76
2022/06/14 07:17:39;;;;;;;;;;;15.60;99.90;;;;;;5095002;28;19921;-76
2022/06/14 07:20:13;;;;;;;;;;;15.60;99.90;;;;;;5095606;28;19908;-76
2022/06/14 07:22:42;;;;;;;;;;;15.50;99.90;;;;;;5094897;28;19908;-76
2022/06/14 07:25:23;;;;;;;;;;;15.50;99.90;;;;;;5095500;28;19908;-77
2022/06/14 07:27:58;;;;;;;;;;;15.60;99.90;;;;;;5095137;28;19908;-77
2022/06/14 07:30:35;;;;;;;;;;;15.60;99.90;;;;;;5094519;28;19946;-76
2022/06/14 07:33:01;;;;;;;;;;;15.70;99.90;;;;;;5095000;28;20375;-76
2022/06/14 07:35:31;;;;;;;;;;;15.80;99.90;;;;;;5093187;28;20011;-78
2022/06/14 07:38:03;;;;;;;;;;;15.90;99.90;;;;;;5095163;28;19908;-77
2022/06/14 07:40:37;;;;;;;;;;;15.80;99.90;;;;;;5094360;28;20001;-77
2022/06/14 07:43:11;;;;;;;;;;;16.00;99.90;;;;;;5094888;28;19912;-77
2022/06/14 07:45:41;;;;;;;;;;;16.20;99.90;;;;;;5093363;28;19908;-77
2022/06/14 07:48:26;;;;;;;;;;;16.20;99.90;;;;;;5101339;28;19959;-78
2022/06/14 07:51:04;;;;;;;;;;;16.30;99.90;;;;;;5117997;28;19965;-78
2022/06/14 07:53:36;;;;;;;;;;;16.20;99.90;;;;;;5099890;28;19919;-78
2022/06/14 07:56:14;;;;;;;;;;;16.40;99.90;;;;;;5095229;28;20034;-78
2022/06/14 07:58:43;;;;;;;;;;;16.40;99.90;;;;;;5092848;28;19915;-79
2022/06/14 08:01:12;;;;;;;;;;;16.40;99.90;;;;;;5094674;28;19913;-78
2022/06/14 08:03:50;;;;;;;;;;;16.40;99.90;;;;;;5093796;28;19915;-79
2022/06/14 08:06:19;;;;;;;;;;;16.40;99.90;;;;;;5094652;28;19908;-78
2022/06/14 08:08:47;;;;;;;;;;;16.40;99.90;;;;;;5093935;28;19944;-78
2022/06/14 08:11:19;;;;;;;;;;;16.40;99.90;;;;;;5094135;28;19951;-77
2022/06/14 08:13:50;;;;;;;;;;;16.30;99.90;;;;;;5094976;28;19977;-77
2022/06/14 08:16:16;;;;;;;;;;;16.40;99.90;;;;;;5094573;28;20353;-78
2022/06/14 08:18:48;;;;;;;;;;;16.40;99.90;;;;;;5093925;28;19943;-77
2022/06/14 08:21:18;;;;;;;;;;;16.40;99.90;;;;;;5094190;28;19998;-78
2022/06/14 08:23:52;;;;;;;;;;;16.30;99.90;;;;;;5094095;28;19999;-78
2022/06/14 08:26:23;;;;;;;;;;;16.30;99.90;;;;;;5092664;28;19948;-78
2022/06/14 08:28:53;;;;;;;;;;;16.30;99.90;;;;;;5094012;28;19915;-78
2022/06/14 08:31:32;;;;;;;;;;;16.30;99.90;;;;;;5092446;28;19920;-78
2022/06/14 08:34:16;;;;;;;;;;;16.40;99.90;;;;;;5094200;28;19923;-77
2022/06/14 08:36:43;;;;;;;;;;;16.50;99.90;;;;;;5093516;28;19908;-77
2022/06/14 08:39:11;;;;;;;;;;;16.70;99.90;;;;;;5094157;28;20011;-78
2022/06/14 08:41:37;;;;;;;;;;;16.80;99.90;;;;;;5093037;28;19908;-78
2022/06/14 08:44:16;;;;;;;;;;;16.90;99.90;;;;;;5093431;28;20250;-78
2022/06/14 08:46:54;;;;;;;;;;;17.00;99.90;;;;;;5091810;28;19908;-77
2022/06/14 08:49:20;;;;;;;;;;;17.00;99.90;;;;;;5093987;28;19951;-77
2022/06/14 08:51:49;;;;;;;;;;;17.00;99.90;;;;;;5093234;28;19966;-77
2022/06/14 08:54:14;;;;;;;;;;;17.00;99.90;;;;;;5093000;28;19919;-78
2022/06/14 08:56:55;;;;;;;;;;;17.00;99.90;;;;;;5093517;28;19908;-77
2022/06/14 08:59:40;;;;;;;;;;;16.90;99.90;;;;;;5094056;28;20296;-78
2022/06/14 09:02:09;;;;;;;;;;;16.90;99.90;;;;;;5090934;28;20010;-77
2022/06/14 09:04:47;;;;;;;;;;;17.00;99.90;;;;;;5093113;28;19908;-77
2022/06/14 09:07:30;;;;;;;;;;;17.00;99.90;;;;;;5093294;28;19912;-77
2022/06/14 09:10:07;;;;;;;;;;;17.10;99.90;;;;;;5093531;28;19961;-78
2022/06/14 09:12:51;;;;;;;;;;;17.20;99.90;;;;;;5091627;28;20320;-78
2022/06/14 09:15:35;;;;;;;;;;;17.30;99.90;;;;;;5092211;28;19912;-78
2022/06/14 09:18:01;;;;;;;;;;;17.40;99.90;;;;;;5093140;28;20281;-78
2022/06/14 09:20:32;;;;;;;;;;;17.40;99.90;;;;;;5093329;28;19908;-78
2022/06/14 09:23:09;;;;;;;;;;;17.50;99.90;;;;;;5093281;28;20403;-78
2022/06/14 09:25:53;;;;;;;;;;;17.60;99.90;;;;;;5092837;28;19908;-77
2022/06/14 09:28:27;;;;;;;;;;;18.00;99.90;;;;;;5093346;28;19908;-78
2022/06/14 09:31:11;;;;;;;;;;;18.10;99.90;;;;;;5092267;28;19920;-78
2022/06/14 09:33:56;;;;;;;;;;;18.10;99.90;;;;;;5092281;28;20385;-78
2022/06/14 09:36:40;;;;;;;;;;;18.10;99.90;;;;;;5093290;28;19958;-78
2022/06/14 09:39:14;;;;;;;;;;;18.20;99.90;;;;;;5093046;28;19908;-77
2022/06/14 09:41:58;;;;;;;;;;;18.40;99.90;;;;;;5092441;28;19920;-78
2022/06/14 09:44:24;;;;;;;;;;;18.40;99.90;;;;;;5092986;28;19908;-78
2022/06/14 09:47:00;;;;;;;;;;;18.60;99.90;;;;;;5092410;28;20351;-78
2022/06/14 09:49:51;;;;;;;;;;;18.70;99.90;;;;;;5092843;28;19909;-78
2022/06/14 09:52:36;;;;;;;;;;;18.80;99.90;;;;;;5091213;28;19965;-78
2022/06/14 09:55:17;;;;;;;;;;;18.70;99.90;;;;;;5091605;28;19912;-78
2022/06/14 09:57:42;;;;;;;;;;;18.70;99.90;;;;;;5092726;28;20273;-78
2022/06/14 10:00:27;;;;;;;;;;;18.70;99.90;;;;;;5092891;28;19953;-77
2022/06/14 10:03:01;;;;;;;;;;;18.80;99.90;;;;;;5092278;28;19969;-78
2022/06/14 10:05:45;;;;;;;;;;;18.70;99.90;;;;;;5095737;28;19908;-77
2022/06/14 10:08:17;;;;;;;;;;;18.50;99.90;;;;;;5097054;28;20315;-77
2022/06/14 10:11:01;;;;;;;;;;;18.40;99.90;;;;;;5097144;28;19912;-77
2022/06/14 10:13:45;;;;;;;;;;;18.20;99.90;;;;;;5096923;28;19912;-77
2022/06/14 10:16:23;;;;;;;;;;;18.00;99.90;;;;;;5096858;28;20033;-77
2022/06/14 10:18:51;;;;;;;;;;;17.90;99.90;;;;;;5096111;28;20000;-77
2022/06/14 10:21:25;;;;;;;;;;;18.10;99.90;;;;;;5096490;28;19936;-77
2022/06/14 10:23:51;;;;;;;;;;;18.00;99.90;;;;;;5096250;28;19912;-77
2022/06/14 10:29:20;;;;;;;;;;;18.10;99.90;;;;;;5096779;28;19915;-77
2022/06/14 10:32:04;;;;;;;;;;;18.00;99.90;;;;;;5096043;28;19920;-77
2022/06/14 10:34:49;;;;;;;;;;;17.90;99.90;;;;;;5096454;28;20010;-77
2022/06/14 10:37:33;;;;;;;;;;;17.90;99.90;;;;;;5095949;28;20349;-77
2022/06/14 10:40:17;;;;;;;;;;;17.80;99.90;;;;;;5095855;28;19909;-77
2022/06/14 10:42:49;;;;;;;;;;;17.80;99.90;;;;;;5095773;28;19912;-76
2022/06/14 10:45:18;;;;;;;;;;;17.90;99.90;;;;;;5096270;28;19908;-77
2022/06/14 10:47:52;;;;;;;;;;;17.90;99.90;;;;;;5095601;28;19909;-76
2022/06/14 10:50:26;;;;;;;;;;;18.00;99.90;;;;;;5095981;28;19915;-77
2022/06/14 10:52:54;;;;;;;;;;;18.10;99.90;;;;;;5095448;28;19920;-76
2022/06/14 10:55:28;;;;;;;;;;;18.30;99.90;;;;;;5096099;28;20349;-77
2022/06/14 10:58:13;;;;;;;;;;;18.40;99.90;;;;;;5095418;28;19913;-76
2022/06/14 11:00:38;;;;;;;;;;;18.50;99.90;;;;;;5098199;28;19908;-75
2022/06/14 11:03:22;;;;;;;;;;;18.50;99.90;;;;;;5112488;28;19909;-77
2022/06/14 11:06:06;;;;;;;;;;;18.40;99.90;;;;;;5099831;28;20353;-77
2022/06/14 11:08:50;;;;;;;;;;;18.50;99.90;;;;;;5096517;28;19919;-77
2022/06/14 11:11:19;;;;;;;;;;;18.60;99.90;;;;;;5095701;28;19912;-77
2022/06/14 11:13:44;;;;;;;;;;;18.60;99.90;;;;;;5095087;28;19968;-77
2022/06/14 11:16:13;;;;;;;;;;;18.60;99.90;;;;;;5094800;28;19912;-77
2022/06/14 11:18:58;;;;;;;;;;;18.70;99.90;;;;;;5095196;28;19931;-75
2022/06/14 11:21:38;;;;;;;;;;;18.80;99.90;;;;;;5095545;28;19915;-77
2022/06/14 11:24:04;;;;;;;;;;;18.90;99.90;;;;;;5095246;28;19908;-77
2022/06/14 11:26:32;;;;;;;;;;;19.00;99.90;;;;;;5094277;28;20319;-77
2022/06/14 11:29:16;;;;;;;;;;;19.00;99.90;;;;;;5094592;28;19971;-77
2022/06/14 11:31:47;;;;;;;;;;;18.90;99.90;;;;;;5094917;28;19920;-77
2022/06/14 11:34:16;;;;;;;;;;;18.90;99.90;;;;;;5094833;28;19920;-77
2022/06/14 11:36:42;;;;;;;;;;;18.90;99.90;;;;;;5094733;28;19916;-77
2022/06/14 11:39:19;;;;;;;;;;;18.70;99.90;;;;;;5095168;28;20017;-77
2022/06/14 11:41:46;;;;;;;;;;;18.80;99.90;;;;;;5094318;28;19915;-77
2022/06/14 11:44:27;;;;;;;;;;;18.80;99.90;;;;;;5095226;28;19916;-77
2022/06/14 11:47:02;;;;;;;;;;;19.10;99.90;;;;;;5094422;28;19962;-78
2022/06/14 11:49:39;;;;;;;;;;;19.30;99.90;;;;;;5095174;28;19953;-78
2022/06/14 11:52:18;;;;;;;;;;;19.50;99.90;;;;;;5094485;28;19958;-77
2022/06/14 11:54:43;;;;;;;;;;;19.80;99.90;;;;;;5094069;28;20357;-77
2022/06/14 11:57:09;;;;;;;;;;;20.00;99.90;;;;;;5094871;28;19922;-77
2022/06/14 11:59:35;;;;;;;;;;;20.30;99.90;;;;;;5094675;28;19908;-78
2022/06/14 12:02:27;;;;;;;;;;;20.60;99.90;;;;;;5094148;28;19914;-77
2022/06/14 12:05:08;;;;;;;;;;;20.60;99.90;;;;;;5085063;28;19957;-78
2022/06/14 12:07:36;;;;;;;;;;;20.50;99.90;;;;;;5094670;28;20050;-78
2022/06/14 12:10:21;;;;;;;;;;;20.40;99.90;;;;;;5094057;28;19994;-78
2022/06/14 12:12:55;;;;;;;;;;;20.30;99.90;;;;;;5093972;28;19912;-78
2022/06/14 12:15:39;;;;;;;;;;;20.30;99.90;;;;;;5094885;28;19912;-78
2022/06/14 12:18:07;;;;;;;;;;;20.40;99.90;;;;;;5093935;28;19908;-77
2022/06/14 12:20:42;;;;;;;;;;;20.50;99.90;;;;;;5094501;28;19908;-77
2022/06/14 12:23:10;;;;;;;;;;;20.60;99.90;;;;;;5092713;28;19912;-78
2022/06/14 12:28:26;;;;;;;;;;;20.70;99.90;;;;;;5094157;28;20296;-78
2022/06/14 12:30:56;;;;;;;;;;;20.70;99.90;;;;;;5093340;28;19980;-78
2022/06/14 12:33:44;;;;;;;;;;;20.80;99.90;;;;;;5094137;28;19982;-79
2022/06/14 12:36:27;;;;;;;;;;;20.80;99.90;;;;;;5094141;28;19912;-78
2022/06/14 12:38:56;;;;;;;;;;;20.60;99.90;;;;;;5093571;28;19977;-78
2022/06/14 12:41:31;;;;;;;;;;;20.50;99.90;;;;;;5094100;28;19908;-78
2022/06/14 12:44:02;;;;;;;;;;;20.30;99.90;;;;;;5093324;28;19908;-78
2022/06/14 12:46:30;;;;;;;;;;;20.20;99.90;;;;;;5093923;28;20006;-79
2022/06/14 12:49:14;;;;;;;;;;;20.20;99.90;;;;;;5093371;28;19919;-78
2022/06/14 12:51:49;;;;;;;;;;;20.10;99.90;;;;;;5085979;28;19916;-77
2022/06/14 12:54:22;;;;;;;;;;;20.10;99.90;;;;;;5080849;28;19912;-78
2022/06/14 12:56:53;;;;;;;;;;;20.20;99.90;;;;;;5072834;28;19915;-77
2022/06/14 12:59:26;;;;;;;;;;;20.10;99.90;;;;;;5073171;28;19936;-78
2022/06/14 13:02:11;;;;;;;;;;;20.00;99.90;;;;;;5072088;28;20448;-76
2022/06/14 13:04:40;;;;;;;;;;;20.10;99.90;;;;;;5073219;28;19940;-78
2022/06/14 13:07:06;;;;;;;;;;;20.00;99.90;;;;;;5072510;28;20057;-77
2022/06/14 13:09:50;;;;;;;;;;;20.00;99.90;;;;;;5071356;28;20867;-78
2022/06/14 13:12:54;;;;;;;;;;;20.00;99.90;;;;;;5072769;28;20322;-79
2022/06/14 13:15:35;;;;;;;;;;;19.90;99.90;;;;;;5050231;28;19913;-78
2022/06/14 13:18:00;;;;;;;;;;;19.90;99.90;;;;;;5049786;28;19943;-78
2022/06/14 13:20:30;;;;;;;;;;;20.00;99.90;;;;;;5063058;28;19912;-78
2022/06/14 13:23:14;;;;;;;;;;;20.00;99.90;;;;;;5071617;28;19909;-78
2022/06/14 13:25:45;;;;;;;;;;;20.00;99.90;;;;;;5072269;28;20250;-78
2022/06/14 13:28:30;;;;;;;;;;;20.20;99.90;;;;;;5072056;28;20377;-79
2022/06/14 13:31:04;;;;;;;;;;;20.20;99.90;;;;;;5071571;28;19946;-78
2022/06/14 13:33:49;;;;;;;;;;;20.20;99.90;;;;;;5072287;28;20357;-78
2022/06/14 13:36:23;;;;;;;;;;;20.20;99.90;;;;;;5071818;28;20277;-78
2022/06/14 13:38:50;;;;;;;;;;;20.10;99.90;;;;;;5071146;28;19934;-77
2022/06/14 13:41:21;;;;;;;;;;;20.30;99.90;;;;;;5072296;28;19909;-78
2022/06/14 13:44:16;;;;;;;;;;;20.10;99.90;;;;;;5071912;28;19908;-76
2022/06/14 13:46:42;;;;;;;;;;;20.10;99.90;;;;;;5067164;28;20403;-78
2022/06/14 13:49:26;;;;;;;;;;;20.20;99.90;;;;;;5071845;28;20030;-78
2022/06/14 13:51:56;;;;;;;;;;;20.30;99.90;;;;;;5071536;28;19912;-78
2022/06/14 13:54:36;;;;;;;;;;;20.20;99.90;;;;;;5071752;28;19912;-78
2022/06/14 13:57:20;;;;;;;;;;;20.20;99.90;;;;;;5071338;28;19909;-78
2022/06/14 13:59:48;;;;;;;;;;;20.10;99.90;;;;;;5071697;28;19931;-77
2022/06/14 14:02:40;;;;;;;;;;;20.20;99.90;;;;;;5071501;28;19909;-78
2022/06/14 14:05:15;;;;;;;;;;;20.30;99.90;;;;;;5070049;28;20447;-78
2022/06/14 14:07:48;;;;;;;;;;;20.30;99.90;;;;;;5071837;28;20361;-77
2022/06/14 14:10:14;;;;;;;;;;;20.40;99.90;;;;;;5072042;28;19908;-78
2022/06/14 14:12:42;;;;;;;;;;;20.50;99.90;;;;;;5071812;28;20491;-78
2022/06/14 14:15:18;;;;;;;;;;;20.60;99.90;;;;;;5071608;28;19916;-78
2022/06/14 14:17:55;;;;;;;;;;;20.60;99.90;;;;;;5072130;28;19916;-78
2022/06/14 14:20:32;;;;;;;;;;;20.80;99.90;;;;;;5072261;28;19909;-77
2022/06/14 14:23:01;;;;;;;;;;;20.80;99.90;;;;;;5071359;28;20421;-78
2022/06/14 14:25:32;;;;;;;;;;;20.90;99.90;;;;;;5072161;28;19997;-78
2022/06/14 14:28:13;;;;;;;;;;;21.00;99.90;;;;;;5071359;28;19908;-78
2022/06/14 14:30:57;;;;;;;;;;;21.10;99.90;;;;;;5071459;28;20337;-78
2022/06/14 14:33:41;;;;;;;;;;;21.00;99.90;;;;;;5071834;28;19916;-78
2022/06/14 14:36:13;;;;;;;;;;;21.00;99.90;;;;;;5071303;28;19923;-78
2022/06/14 14:38:44;;;;;;;;;;;21.10;99.90;;;;;;5071787;28;19908;-78
2022/06/14 14:41:33;;;;;;;;;;;21.20;99.90;;;;;;5071301;28;19909;-78
2022/06/14 14:44:00;;;;;;;;;;;21.30;99.90;;;;;;5071162;28;19953;-79
2022/06/14 14:46:29;;;;;;;;;;;21.30;99.90;;;;;;5072069;28;20442;-79
2022/06/14 14:49:04;;;;;;;;;;;21.30;99.90;;;;;;5071458;28;20337;-79
2022/06/14 14:51:39;;;;;;;;;;;21.50;99.90;;;;;;5072735;28;20273;-78
2022/06/14 14:54:08;;;;;;;;;;;21.70;99.90;;;;;;5074636;28;19939;-79
2022/06/14 14:56:41;;;;;;;;;;;21.60;99.90;;;;;;5076615;28;19909;-78
2022/06/14 14:59:18;;;;;;;;;;;21.70;99.90;;;;;;5074932;28;20010;-78
2022/06/14 15:07:28;;;;;;;;;;;22.20;99.90;;;;;;5074991;28;19992;-80
2022/06/14 15:10:05;;;;;;;;;;;22.20;99.90;;;;;;5074426;28;20358;-78
2022/06/14 15:12:36;;;;;;;;;;;22.20;99.90;;;;;;5075126;28;19912;-79